Time;durP1;ratioP1;P1;durP2;ratioP2;P2;SDS_P1;SDS_P2;PMS_P1;PMS_P2;Temp;Humidity;BMP_temperature;BMP_pressure;BME280_temperature;BME280_humidity;BME280_pressure;Samples;Min_cycle;Max_cycle;Signal;HPM_P1;HPM_P2
2022/01/01 00:00:42;;;;;;;7.90;7.28;;;11.70;53.70;;;;;;21032;6692;304138;-92
2022/01/01 00:03:08;;;;;;;9.20;8.43;;;11.80;53.40;;;;;;21043;6685;306730;-89
2022/01/01 00:05:34;;;;;;;9.65;8.82;;;12.00;53.20;;;;;;21286;6677;67027;-92
2022/01/01 00:08:03;;;;;;;9.67;8.90;;;11.60;54.30;;;;;;21251;6693;67006;-91
2022/01/01 00:10:28;;;;;;;8.27;7.57;;;11.50;54.20;;;;;;21238;6692;70874;-92
2022/01/01 00:12:53;;;;;;;9.57;8.77;;;11.30;55.00;;;;;;21234;6692;71971;-90
2022/01/01 00:15:19;;;;;;;10.40;9.63;;;11.10;55.70;;;;;;21030;6690;302760;-89
2022/01/01 00:17:44;;;;;;;8.90;8.20;;;11.20;55.30;;;;;;21234;6692;66968;-89
2022/01/01 00:20:11;;;;;;;8.60;7.83;;;11.20;55.30;;;;;;21253;6692;67908;-90
2022/01/01 00:22:38;;;;;;;8.10;7.43;;;11.00;55.80;;;;;;21281;6680;66932;-92
2022/01/01 00:25:04;;;;;;;10.20;9.50;;;10.80;56.20;;;;;;20983;6693;333237;-92
2022/01/01 00:27:29;;;;;;;9.60;8.80;;;11.00;55.90;;;;;;21234;6692;72916;-91
2022/01/01 00:29:55;;;;;;;13.40;12.17;;;11.00;55.90;;;;;;21235;6692;67147;-90
2022/01/01 00:32:20;;;;;;;13.45;12.07;;;10.80;56.40;;;;;;21226;6692;66798;-90
2022/01/01 00:34:46;;;;;;;10.90;10.10;;;10.70;57.00;;;;;;21020;6692;274268;-89
2022/01/01 00:37:12;;;;;;;12.35;11.25;;;10.80;56.60;;;;;;21069;6677;278279;-89
2022/01/01 00:39:37;;;;;;;11.67;10.70;;;11.20;55.80;;;;;;21253;6686;66474;-90
2022/01/01 00:42:03;;;;;;;10.63;9.87;;;11.20;55.90;;;;;;21066;6677;335597;-89
2022/01/01 00:44:32;;;;;;;10.70;9.90;;;11.30;55.30;;;;;;21032;6686;301095;-90
2022/01/01 00:46:58;;;;;;;9.90;9.10;;;11.60;55.00;;;;;;21033;6686;303276;-90
2022/01/01 00:49:24;;;;;;;9.70;9.10;;;11.90;53.80;;;;;;21031;6686;306980;-90
2022/01/01 00:51:50;;;;;;;9.87;9.17;;;11.90;53.80;;;;;;21021;6692;274082;-90
2022/01/01 00:54:17;;;;;;;9.90;9.20;;;12.10;53.50;;;;;;21001;6692;273684;-90
2022/01/01 00:56:43;;;;;;;10.80;10.00;;;12.10;53.10;;;;;;21025;6680;308423;-90
2022/01/01 00:59:08;;;;;;;11.60;10.40;;;12.20;52.70;;;;;;21231;6692;66978;-90
2022/01/01 01:01:34;;;;;;;13.38;12.18;;;11.80;53.20;;;;;;21033;6677;275132;-89
2022/01/01 01:03:59;;;;;;;13.68;12.40;;;11.70;52.90;;;;;;21256;6680;66864;-88
2022/01/01 01:06:26;;;;;;;12.77;11.57;;;11.40;53.40;;;;;;21218;6692;67507;-87
2022/01/01 01:08:54;;;;;;;13.17;12.07;;;11.00;54.40;;;;;;21246;6685;69132;-86
2022/01/01 01:11:19;;;;;;;13.77;12.47;;;10.70;55.30;;;;;;21244;6685;67892;-87
2022/01/01 01:13:50;;;;;;;20.23;18.20;;;10.40;55.90;;;;;;21022;6685;303245;-87
2022/01/01 01:16:10;;;;;;;17.42;15.73;;;10.50;55.30;;;;;;21194;6685;66636;-87
2022/01/01 01:18:37;;;;;;;24.23;21.73;;;10.40;55.40;;;;;;21031;6685;273434;-89
2022/01/01 01:21:02;;;;;;;18.17;16.30;;;10.50;55.30;;;;;;21250;6685;67022;-89
2022/01/01 01:23:28;;;;;;;18.58;16.33;;;10.40;55.40;;;;;;21248;6685;68458;-89
2022/01/01 01:25:55;;;;;;;22.67;20.50;;;10.20;56.10;;;;;;21030;6683;274799;-90
2022/01/01 01:28:19;;;;;;;23.23;20.93;;;10.30;55.50;;;;;;21023;6684;302363;-89
2022/01/01 01:30:46;;;;;;;21.13;19.23;;;10.60;54.80;;;;;;21033;6685;273122;-90
2022/01/01 01:33:11;;;;;;;21.27;19.30;;;10.90;53.60;;;;;;21018;6685;335388;-90
2022/01/01 01:35:36;;;;;;;18.63;16.60;;;10.90;53.60;;;;;;21253;6685;67030;-91
2022/01/01 01:38:02;;;;;;;17.98;16.27;;;10.70;54.00;;;;;;21033;6685;305817;-90
2022/01/01 01:40:28;;;;;;;15.60;14.20;;;10.40;54.50;;;;;;21250;6685;66557;-90
2022/01/01 01:42:54;;;;;;;14.07;12.63;;;10.50;54.50;;;;;;21229;6685;67588;-89
2022/01/01 01:45:21;;;;;;;16.40;14.90;;;10.10;55.20;;;;;;21025;6685;306330;-90
2022/01/01 01:47:45;;;;;;;13.17;11.87;;;10.20;55.10;;;;;;21248;6685;66560;-91
2022/01/01 01:50:11;;;;;;;13.77;12.50;;;10.10;55.30;;;;;;21034;6685;276059;-91
2022/01/01 01:52:37;;;;;;;15.00;13.70;;;10.10;55.60;;;;;;21034;6685;329130;-89
2022/01/01 01:55:02;;;;;;;12.90;11.60;;;10.40;54.60;;;;;;21247;6685;66600;-90
2022/01/01 01:57:28;;;;;;;11.10;10.07;;;10.00;55.50;;;;;;21237;6685;69985;-90
2022/01/01 01:59:54;;;;;;;10.93;9.83;;;10.00;55.50;;;;;;21242;6685;68442;-90
2022/01/01 02:02:19;;;;;;;11.95;10.98;;;9.70;57.40;;;;;;21054;6677;273991;-90
2022/01/01 02:04:45;;;;;;;13.40;12.17;;;9.90;58.40;;;;;;21052;6680;274048;-90
2022/01/01 02:07:10;;;;;;;14.93;13.37;;;10.20;56.70;;;;;;21006;6692;296120;-89
2022/01/01 02:09:36;;;;;;;15.80;14.30;;;10.50;55.90;;;;;;21030;6685;278091;-90
2022/01/01 02:12:01;;;;;;;15.67;14.27;;;10.70;55.40;;;;;;21027;6685;273571;-90
2022/01/01 02:14:50;;;;;;;15.73;14.13;;;10.90;54.90;;;;;;21021;6685;313359;-90
2022/01/01 02:19:24;;;;;;;15.27;13.98;;;11.20;54.40;;;;;;21028;6685;336293;-89
2022/01/01 02:21:53;;;;;;;15.83;14.43;;;11.30;54.20;;;;;;21027;6685;273910;-90
2022/01/01 02:24:21;;;;;;;16.17;14.67;;;11.40;54.50;;;;;;21020;6685;275750;-89
2022/01/01 02:26:46;;;;;;;17.33;15.68;;;11.40;53.90;;;;;;21030;6685;274034;-90
2022/01/01 02:29:12;;;;;;;18.92;17.00;;;11.50;53.00;;;;;;21022;6685;335064;-89
2022/01/01 02:31:37;;;;;;;19.87;17.97;;;11.40;52.20;;;;;;21072;6685;272079;-89
2022/01/01 02:34:03;;;;;;;16.75;15.15;;;11.40;51.70;;;;;;21309;6677;67803;-90
2022/01/01 02:36:28;;;;;;;20.62;17.73;;;10.90;52.40;;;;;;21267;6680;67047;-90
2022/01/01 02:38:54;;;;;;;20.70;18.47;;;10.40;53.60;;;;;;21221;6691;70183;-90
2022/01/01 02:41:19;;;;;;;23.53;20.33;;;9.90;55.60;;;;;;21257;6685;73058;-90
2022/01/01 02:43:45;;;;;;;26.87;24.00;;;9.60;56.60;;;;;;21038;6685;331550;-90
2022/01/01 02:46:11;;;;;;;23.10;20.80;;;9.60;56.50;;;;;;21256;6685;69664;-90
2022/01/01 02:48:37;;;;;;;23.55;19.98;;;9.50;56.80;;;;;;21230;6685;67476;-90
2022/01/01 02:51:05;;;;;;;22.70;19.73;;;9.10;58.40;;;;;;21246;6685;66920;-90
2022/01/01 02:53:30;;;;;;;22.60;19.40;;;9.00;58.30;;;;;;21236;6685;67240;-90
2022/01/01 02:55:55;;;;;;;22.30;18.77;;;8.90;59.00;;;;;;21245;6685;67165;-89
2022/01/01 02:58:21;;;;;;;17.87;15.57;;;8.70;60.00;;;;;;21236;6685;66615;-90
2022/01/01 03:00:47;;;;;;;20.37;16.33;;;8.70;60.00;;;;;;21248;6685;66986;-90
2022/01/01 03:03:12;;;;;;;19.40;17.53;;;8.60;60.50;;;;;;21025;6685;278342;-90
2022/01/01 03:05:38;;;;;;;17.87;16.08;;;8.90;61.20;;;;;;21249;6685;68459;-90
2022/01/01 03:08:04;;;;;;;19.60;17.70;;;9.00;60.30;;;;;;21028;6685;303016;-90
2022/01/01 03:10:29;;;;;;;16.97;15.27;;;9.20;60.00;;;;;;21249;6685;66990;-89
2022/01/01 03:12:55;;;;;;;16.33;13.90;;;9.20;59.10;;;;;;21251;6685;67441;-90
2022/01/01 03:15:20;;;;;;;19.43;17.53;;;9.00;59.30;;;;;;21034;6685;305679;-90
2022/01/01 03:17:46;;;;;;;16.27;14.53;;;9.20;59.30;;;;;;21251;6685;69399;-90
2022/01/01 03:20:12;;;;;;;19.35;17.40;;;9.20;59.30;;;;;;21029;6685;302783;-90
2022/01/01 03:22:37;;;;;;;20.43;18.43;;;9.40;58.90;;;;;;21032;6685;306585;-90
2022/01/01 03:25:03;;;;;;;20.25;18.40;;;9.70;58.10;;;;;;21042;6685;273135;-90
2022/01/01 03:27:28;;;;;;;17.67;15.80;;;9.90;57.70;;;;;;21246;6685;67729;-90
2022/01/01 03:29:55;;;;;;;19.00;17.20;;;9.80;58.00;;;;;;21047;6685;301876;-90
2022/01/01 03:32:20;;;;;;;16.97;14.80;;;9.80;58.20;;;;;;21300;6685;66923;-89
2022/01/01 03:34:46;;;;;;;15.18;13.57;;;9.70;58.40;;;;;;21292;6685;67488;-90
2022/01/01 03:37:11;;;;;;;14.70;13.27;;;9.50;59.20;;;;;;21272;6685;66902;-90
2022/01/01 03:39:37;;;;;;;13.50;12.17;;;9.30;59.80;;;;;;21249;6685;68754;-90
2022/01/01 03:42:04;;;;;;;14.23;12.73;;;9.20;60.20;;;;;;21248;6685;66914;-90
2022/01/01 03:44:30;;;;;;;12.70;11.50;;;9.10;60.60;;;;;;21245;6685;66765;-89
2022/01/01 03:47:04;;;;;;;12.73;11.53;;;9.00;60.70;;;;;;21249;6685;67038;-90
2022/01/01 03:49:23;;;;;;;14.87;13.40;;;9.20;59.80;;;;;;21003;6683;323111;-89
2022/01/01 03:51:48;;;;;;;15.60;14.20;;;9.20;59.80;;;;;;21028;6684;303677;-89
2022/01/01 03:54:16;;;;;;;13.68;12.27;;;9.70;58.50;;;;;;21252;6685;66759;-90
2022/01/01 03:56:40;;;;;;;14.50;13.10;;;9.60;58.40;;;;;;21238;6685;70852;-90
2022/01/01 03:59:06;;;;;;;13.23;12.02;;;9.50;59.00;;;;;;21256;6685;69888;-90
2022/01/01 04:01:32;;;;;;;14.27;12.97;;;9.30;59.70;;;;;;21032;6685;332354;-90
2022/01/01 04:03:59;;;;;;;14.60;13.10;;;9.50;60.00;;;;;;21254;6685;67315;-90
2022/01/01 04:06:24;;;;;;;15.77;12.60;;;9.50;60.00;;;;;;21251;6685;66698;-90
2022/01/01 04:08:51;;;;;;;15.25;13.85;;;9.30;60.20;;;;;;21039;6685;293243;-89
2022/01/01 04:11:17;;;;;;;17.63;15.93;;;9.50;59.30;;;;;;21028;6685;331849;-90
2022/01/01 04:13:42;;;;;;;21.62;19.00;;;9.80;58.30;;;;;;21261;6685;67382;-90
2022/01/01 04:16:10;;;;;;;25.50;22.80;;;9.80;58.30;;;;;;21032;6685;303038;-89
2022/01/01 04:18:40;;;;;;;22.90;20.20;;;9.80;57.40;;;;;;21252;6685;66979;-91
2022/01/01 04:21:06;;;;;;;24.87;22.37;;;9.80;57.50;;;;;;21032;6685;302740;-90
2022/01/01 04:23:31;;;;;;;23.97;21.17;;;9.80;57.50;;;;;;21248;6685;70136;-91
2022/01/01 04:25:57;;;;;;;21.63;19.40;;;9.70;57.80;;;;;;21257;6685;66477;-89
2022/01/01 04:28:23;;;;;;;25.58;22.95;;;9.50;58.60;;;;;;21033;6685;331533;-90
2022/01/01 04:30:48;;;;;;;25.57;21.47;;;9.70;58.80;;;;;;21254;6685;66590;-89
2022/01/01 04:33:15;;;;;;;26.65;24.00;;;9.60;58.60;;;;;;21028;6685;331456;-89
2022/01/01 04:35:41;;;;;;;25.17;21.23;;;9.70;57.90;;;;;;21249;6685;66570;-90
2022/01/01 04:38:14;;;;;;;22.95;20.40;;;9.70;58.20;;;;;;21245;6685;66525;-89
2022/01/01 04:40:33;;;;;;;23.13;20.67;;;9.20;59.10;;;;;;21221;6685;67398;-89
2022/01/01 04:42:58;;;;;;;23.13;20.37;;;9.20;59.10;;;;;;21223;6685;66964;-89
2022/01/01 04:45:24;;;;;;;27.53;24.77;;;9.00;59.40;;;;;;21021;6685;280856;-89
2022/01/01 04:47:49;;;;;;;25.07;22.40;;;9.10;57.90;;;;;;21205;6685;66475;-90
2022/01/01 04:50:16;;;;;;;28.58;25.48;;;9.20;57.40;;;;;;20988;6685;334966;-90
2022/01/01 04:52:43;;;;;;;27.97;23.77;;;9.20;57.40;;;;;;21239;6685;68976;-89
2022/01/01 04:55:08;;;;;;;29.43;26.30;;;9.20;56.80;;;;;;21028;6685;303228;-89
2022/01/01 04:57:34;;;;;;;24.50;21.07;;;9.00;57.30;;;;;;21238;6685;67060;-90
2022/01/01 05:00:00;;;;;;;24.37;20.50;;;9.00;56.90;;;;;;21246;6683;66588;-90
2022/01/01 05:02:26;;;;;;;26.67;23.87;;;8.70;57.60;;;;;;21029;6684;302295;-90
2022/01/01 05:04:52;;;;;;;26.20;23.53;;;9.00;56.40;;;;;;21036;6685;274123;-90
2022/01/01 05:07:17;;;;;;;24.43;22.00;;;9.00;56.40;;;;;;21035;6685;285955;-90
2022/01/01 05:09:43;;;;;;;23.98;21.60;;;9.20;55.80;;;;;;21046;6685;302816;-89
2022/01/01 05:12:09;;;;;;;20.70;18.63;;;9.10;55.90;;;;;;21247;6685;75386;-90
2022/01/01 05:14:35;;;;;;;23.57;21.17;;;9.10;56.00;;;;;;21031;6685;308384;-90
2022/01/01 05:17:00;;;;;;;21.20;18.87;;;9.00;55.70;;;;;;21247;6685;67900;-89
2022/01/01 05:19:26;;;;;;;24.10;21.70;;;8.80;56.20;;;;;;21028;6685;331450;-89
2022/01/01 05:21:55;;;;;;;24.30;21.80;;;8.80;56.40;;;;;;21033;6685;307131;-90
2022/01/01 05:24:18;;;;;;;25.10;22.50;;;9.00;55.70;;;;;;21020;6685;274870;-90
2022/01/01 05:26:43;;;;;;;24.40;22.00;;;9.20;55.20;;;;;;21034;6685;274083;-90
2022/01/01 05:29:08;;;;;;;24.50;22.10;;;9.20;54.60;;;;;;21029;6685;302197;-90
2022/01/01 05:31:34;;;;;;;23.37;19.57;;;9.30;54.70;;;;;;21255;6685;66563;-90
2022/01/01 05:33:59;;;;;;;23.50;21.10;;;9.00;55.30;;;;;;21059;6685;277138;-88
2022/01/01 05:36:25;;;;;;;24.12;21.73;;;9.00;55.80;;;;;;21096;6685;302368;-88
2022/01/01 05:38:50;;;;;;;19.77;17.77;;;9.10;55.80;;;;;;21315;6685;71205;-89
2022/01/01 05:41:16;;;;;;;20.58;18.58;;;8.90;56.20;;;;;;21087;6685;300801;-89
2022/01/01 05:43:41;;;;;;;16.50;14.80;;;8.90;57.10;;;;;;21301;6685;66900;-89
2022/01/01 05:46:07;;;;;;;19.60;17.60;;;8.70;57.40;;;;;;21054;6685;335665;-89
2022/01/01 05:48:34;;;;;;;17.93;16.33;;;8.80;57.70;;;;;;21033;6685;273523;-86
2022/01/01 05:50:59;;;;;;;17.83;16.23;;;9.00;57.30;;;;;;21041;6685;273910;-88
2022/01/01 05:53:25;;;;;;;18.80;15.70;;;9.30;56.90;;;;;;21248;6685;66958;-89
2022/01/01 05:55:50;;;;;;;18.70;17.00;;;9.10;57.10;;;;;;21051;6685;280680;-88
2022/01/01 05:58:16;;;;;;;19.30;17.35;;;9.10;56.70;;;;;;21044;6685;306558;-89
2022/01/01 06:00:42;;;;;;;16.80;15.00;;;9.30;56.00;;;;;;21254;6685;66938;-88
2022/01/01 06:03:07;;;;;;;19.63;17.73;;;9.00;56.20;;;;;;21037;6685;303117;-88
2022/01/01 06:05:33;;;;;;;16.67;14.87;;;9.00;56.20;;;;;;21254;6685;67046;-88
2022/01/01 06:07:58;;;;;;;16.55;14.82;;;8.80;56.50;;;;;;21248;6685;72484;-88
2022/01/01 06:10:24;;;;;;;16.40;14.67;;;8.50;57.30;;;;;;21254;6685;67120;-89
2022/01/01 06:12:49;;;;;;;18.00;16.23;;;8.20;58.10;;;;;;21034;6683;302752;-88
2022/01/01 06:15:15;;;;;;;16.48;14.77;;;8.30;58.30;;;;;;21255;6684;66868;-89
2022/01/01 06:17:41;;;;;;;15.13;13.53;;;8.30;58.30;;;;;;21241;6685;72782;-89
2022/01/01 06:20:06;;;;;;;17.40;15.70;;;8.10;58.90;;;;;;21024;6685;290738;-89
2022/01/01 06:22:33;;;;;;;13.27;11.93;;;8.20;58.80;;;;;;21239;6685;67415;-89
2022/01/01 06:24:58;;;;;;;15.50;14.10;;;8.20;58.70;;;;;;21030;6685;274219;-88
2022/01/01 06:27:26;;;;;;;16.00;14.60;;;8.70;58.00;;;;;;21027;6685;306694;-88
2022/01/01 06:29:51;;;;;;;13.70;12.50;;;8.70;58.00;;;;;;21246;6685;69685;-89
2022/01/01 06:32:18;;;;;;;15.00;13.67;;;8.70;58.30;;;;;;21035;6685;300369;-88
2022/01/01 06:34:43;;;;;;;13.40;12.20;;;8.70;58.30;;;;;;21255;6685;67786;-87
2022/01/01 06:37:09;;;;;;;14.43;13.20;;;8.60;58.60;;;;;;21035;6685;282288;-89
2022/01/01 06:39:34;;;;;;;14.60;13.10;;;8.70;58.60;;;;;;21262;6685;67992;-88
2022/01/01 06:42:00;;;;;;;17.13;15.60;;;8.70;59.00;;;;;;21023;6685;331461;-88
2022/01/01 06:44:25;;;;;;;17.00;15.27;;;8.80;57.80;;;;;;21238;6685;67665;-88
2022/01/01 06:46:51;;;;;;;18.47;16.67;;;8.70;58.20;;;;;;21029;6685;274451;-88
2022/01/01 06:49:17;;;;;;;16.40;14.80;;;8.80;57.70;;;;;;21231;6685;71593;-89
2022/01/01 06:51:42;;;;;;;15.20;13.70;;;8.80;57.90;;;;;;21238;6685;67595;-88
2022/01/01 06:54:08;;;;;;;71.65;65.30;;;8.60;58.60;;;;;;21017;6685;331829;-88
2022/01/01 06:56:33;;;;;;;23.00;20.53;;;8.70;57.70;;;;;;21241;6685;66917;-88
2022/01/01 06:58:59;;;;;;;21.37;19.27;;;8.70;57.80;;;;;;21023;6685;305425;-88
2022/01/01 07:01:24;;;;;;;20.87;18.87;;;8.80;56.70;;;;;;21030;6685;272951;-88
2022/01/01 07:03:50;;;;;;;18.07;16.17;;;9.00;55.80;;;;;;21253;6685;67264;-88
2022/01/01 07:06:16;;;;;;;21.63;19.57;;;8.90;56.10;;;;;;21021;6685;302277;-88
2022/01/01 07:08:41;;;;;;;18.60;16.80;;;8.90;55.80;;;;;;21251;6685;66951;-89
2022/01/01 07:11:08;;;;;;;21.62;19.33;;;8.80;56.30;;;;;;21028;6685;331869;-88
2022/01/01 07:13:34;;;;;;;21.95;19.92;;;8.80;55.80;;;;;;21029;6685;302233;-89
2022/01/01 07:15:59;;;;;;;20.53;18.37;;;9.00;55.10;;;;;;21255;6685;67484;-88
2022/01/01 07:18:25;;;;;;;17.27;15.30;;;8.80;56.10;;;;;;21247;6685;68949;-88
2022/01/01 07:20:50;;;;;;;18.07;15.40;;;8.50;56.40;;;;;;21248;6685;70765;-89
2022/01/01 07:23:16;;;;;;;17.63;15.83;;;8.20;57.90;;;;;;21251;6683;66973;-88
2022/01/01 07:25:41;;;;;;;21.47;19.37;;;8.00;58.20;;;;;;21031;6684;318532;-89
2022/01/01 07:28:10;;;;;;;19.33;17.08;;;8.10;57.80;;;;;;21251;6685;67035;-88
2022/01/01 07:30:33;;;;;;;21.83;19.67;;;8.20;57.60;;;;;;21021;6685;332275;-88
2022/01/01 07:32:59;;;;;;;21.13;19.13;;;8.30;56.80;;;;;;21032;6685;303036;-88
2022/01/01 07:35:24;;;;;;;19.83;17.93;;;8.50;56.20;;;;;;21243;6685;69871;-89
2022/01/01 07:37:50;;;;;;;17.50;15.70;;;8.40;56.60;;;;;;21247;6685;88533;-88
2022/01/01 07:40:16;;;;;;;20.30;18.27;;;8.20;56.80;;;;;;21028;6685;273343;-90
2022/01/01 07:42:42;;;;;;;17.17;15.53;;;8.20;56.80;;;;;;21237;6685;67160;-88
2022/01/01 07:45:07;;;;;;;19.27;17.47;;;8.20;57.10;;;;;;21027;6685;306785;-87
2022/01/01 07:47:33;;;;;;;16.70;14.83;;;8.30;56.90;;;;;;21247;6685;72848;-89
2022/01/01 07:49:59;;;;;;;18.20;16.60;;;8.30;56.70;;;;;;21034;6685;272869;-88
2022/01/01 07:52:26;;;;;;;18.87;17.07;;;8.60;56.60;;;;;;21029;6685;276121;-89
2022/01/01 07:54:51;;;;;;;18.83;17.12;;;8.50;56.00;;;;;;21031;6685;332780;-88
2022/01/01 07:57:17;;;;;;;17.07;15.47;;;8.80;55.60;;;;;;21033;6685;302688;-88
2022/01/01 07:59:42;;;;;;;15.37;13.87;;;8.90;55.20;;;;;;21258;6685;67063;-89
2022/01/01 08:02:09;;;;;;;14.17;12.77;;;8.50;56.70;;;;;;21258;6685;66527;-88
2022/01/01 08:04:34;;;;;;;14.27;12.53;;;8.50;56.80;;;;;;21255;6685;67071;-89
2022/01/01 08:07:01;;;;;;;14.37;12.87;;;8.30;57.80;;;;;;21254;6685;66587;-88
2022/01/01 08:09:25;;;;;;;14.83;12.73;;;8.20;58.70;;;;;;21245;6685;73905;-89
2022/01/01 08:11:51;;;;;;;16.40;14.82;;;8.10;59.30;;;;;;21036;6685;306912;-89
2022/01/01 08:14:17;;;;;;;14.43;13.03;;;8.60;58.30;;;;;;21239;6685;67102;-88
2022/01/01 08:16:59;;;;;;;14.30;12.80;;;8.50;58.20;;;;;;21254;6685;66462;-89
2022/01/01 08:19:25;;;;;;;12.40;11.20;;;8.60;58.80;;;;;;21220;6685;67153;-89
2022/01/01 08:21:50;;;;;;;12.50;10.80;;;8.60;59.40;;;;;;21247;6685;67795;-89
2022/01/01 08:24:17;;;;;;;12.70;11.10;;;8.60;59.80;;;;;;21239;6685;70786;-89
2022/01/01 08:26:43;;;;;;;14.50;13.30;;;8.60;60.10;;;;;;21030;6685;273919;-89
2022/01/01 08:29:08;;;;;;;14.90;13.70;;;8.90;58.20;;;;;;21000;6685;302678;-89
2022/01/01 08:31:34;;;;;;;13.65;12.35;;;9.50;56.50;;;;;;21230;6685;66875;-88
2022/01/01 08:33:59;;;;;;;15.40;14.00;;;9.60;56.60;;;;;;21037;6685;278125;-89
2022/01/01 08:36:28;;;;;;;15.00;13.70;;;9.80;55.50;;;;;;21036;6683;304656;-89
2022/01/01 08:38:54;;;;;;;14.17;13.03;;;10.40;52.50;;;;;;21037;6684;274156;-88
2022/01/01 08:41:21;;;;;;;14.13;12.93;;;10.50;52.50;;;;;;21041;6685;283647;-89
2022/01/01 08:43:48;;;;;;;14.50;13.13;;;10.70;51.90;;;;;;21036;6685;302769;-89
2022/01/01 08:46:13;;;;;;;12.67;11.60;;;10.90;51.50;;;;;;21256;6685;66748;-89
2022/01/01 08:48:39;;;;;;;11.27;10.27;;;10.80;52.30;;;;;;21263;6685;67011;-88
2022/01/01 08:51:11;;;;;;;11.83;10.87;;;10.50;53.30;;;;;;21031;6685;302646;-90
2022/01/01 08:53:37;;;;;;;12.30;11.20;;;10.60;52.70;;;;;;20783;6685;303277;-90
2022/01/01 08:56:07;;;;;;;11.88;10.98;;;11.00;52.20;;;;;;21039;6685;302298;-90
2022/01/01 08:58:28;;;;;;;11.07;10.18;;;11.30;51.80;;;;;;21009;6685;303117;-90
2022/01/01 09:00:54;;;;;;;8.57;7.83;;;11.60;51.60;;;;;;21249;6685;67637;-90
2022/01/01 09:03:19;;;;;;;10.10;9.20;;;11.50;52.20;;;;;;21050;6677;291697;-90
2022/01/01 09:05:45;;;;;;;7.70;7.10;;;11.60;51.60;;;;;;21230;6692;67534;-90
2022/01/01 09:08:10;;;;;;;8.40;7.70;;;11.60;52.30;;;;;;21279;6677;66982;-89
2022/01/01 09:10:37;;;;;;;8.60;8.00;;;11.50;53.20;;;;;;21041;6680;306449;-89
2022/01/01 09:13:03;;;;;;;7.20;6.70;;;11.60;52.40;;;;;;21169;6696;67158;-90
2022/01/01 09:15:28;;;;;;;7.40;6.80;;;11.70;52.90;;;;;;21275;6677;68516;-88
2022/01/01 09:17:54;;;;;;;8.52;7.82;;;11.60;53.50;;;;;;21061;6677;283695;-88
2022/01/01 09:20:20;;;;;;;8.20;7.50;;;11.90;52.90;;;;;;21271;6677;67443;-88
2022/01/01 09:22:46;;;;;;;10.67;9.90;;;11.90;52.90;;;;;;21060;6677;274386;-88
2022/01/01 09:25:12;;;;;;;12.90;11.87;;;12.20;53.10;;;;;;21285;6677;67499;-88
2022/01/01 09:27:38;;;;;;;21.43;19.33;;;12.20;52.50;;;;;;21261;6677;66664;-90
2022/01/01 09:30:03;;;;;;;17.87;16.33;;;12.10;53.20;;;;;;21045;6680;305725;-88
2022/01/01 09:32:33;;;;;;;15.23;14.03;;;12.20;52.10;;;;;;21015;6692;302957;-92
2022/01/01 09:35:00;;;;;;;13.23;12.10;;;12.50;51.20;;;;;;21286;6677;66876;-89
2022/01/01 09:37:27;;;;;;;13.07;11.87;;;12.50;51.70;;;;;;21289;6677;66472;-88
2022/01/01 09:39:53;;;;;;;13.07;11.95;;;12.30;52.20;;;;;;21291;6677;66738;-91
2022/01/01 09:42:19;;;;;;;12.00;10.90;;;12.10;52.70;;;;;;21290;6677;66944;-91
2022/01/01 09:44:48;;;;;;;11.52;10.60;;;12.00;53.20;;;;;;21274;6680;66983;-91
2022/01/01 09:47:13;;;;;;;13.55;12.45;;;11.90;53.50;;;;;;21039;6690;299414;-89
2022/01/01 09:49:39;;;;;;;12.75;11.70;;;12.10;51.50;;;;;;21288;6684;66548;-87
2022/01/01 09:52:04;;;;;;;12.27;11.07;;;12.20;51.80;;;;;;21281;6685;67287;-89
2022/01/01 09:54:31;;;;;;;12.30;11.30;;;12.00;52.30;;;;;;21039;6685;275178;-88
2022/01/01 09:56:55;;;;;;;11.47;10.57;;;12.20;50.90;;;;;;21030;6685;303508;-87
2022/01/01 09:59:22;;;;;;;12.10;11.10;;;12.50;50.10;;;;;;21032;6685;282522;-90
2022/01/01 10:01:49;;;;;;;11.93;11.02;;;12.80;49.60;;;;;;21051;6685;306446;-91
2022/01/01 10:04:16;;;;;;;12.27;11.27;;;13.00;48.70;;;;;;21060;6685;301789;-91
2022/01/01 10:06:41;;;;;;;11.70;10.80;;;13.20;49.00;;;;;;21043;6685;273567;-89
2022/01/01 10:09:09;;;;;;;11.00;10.13;;;13.30;48.10;;;;;;21030;6685;290842;-90
2022/01/01 10:11:34;;;;;;;10.53;9.73;;;13.30;49.40;;;;;;21259;6685;71194;-95
2022/01/01 10:14:09;;;;;;;10.97;10.17;;;13.30;48.50;;;;;;21070;6677;303937;-94
2022/01/01 10:16:39;;;;;;;10.90;10.05;;;13.30;48.80;;;;;;21041;6692;320960;-94
2022/01/01 10:19:03;;;;;;;10.70;9.80;;;13.50;48.50;;;;;;21280;6680;66562;-93
2022/01/01 10:21:34;;;;;;;10.77;9.68;;;13.40;49.40;;;;;;21313;6680;67419;-93
2022/01/01 10:23:57;;;;;;;11.23;10.33;;;13.10;49.50;;;;;;21068;6680;303059;-94
2022/01/01 10:29:10;;;;;;;10.30;9.47;;;13.10;50.20;;;;;;21241;6695;67120;-91
2022/01/01 10:31:36;;;;;;;12.20;11.10;;;12.90;51.10;;;;;;21031;6688;302611;-91
2022/01/01 10:34:02;;;;;;;12.17;11.27;;;13.10;50.20;;;;;;21057;6677;304173;-91
2022/01/01 10:36:27;;;;;;;12.63;11.63;;;13.30;49.70;;;;;;21024;6680;331370;-93
2022/01/01 10:38:53;;;;;;;11.65;10.52;;;13.60;48.70;;;;;;21256;6692;67486;-90
2022/01/01 10:41:18;;;;;;;12.27;11.37;;;13.60;49.50;;;;;;21100;6685;272091;-90
2022/01/01 10:43:44;;;;;;;11.93;10.97;;;13.60;49.00;;;;;;21322;6685;66962;-88
2022/01/01 10:46:09;;;;;;;10.60;9.60;;;13.50;49.70;;;;;;21306;6685;66708;-89
2022/01/01 10:51:04;;;;;;;12.18;11.18;;;13.10;51.10;;;;;;21081;6680;307465;-90
2022/01/01 10:53:31;;;;;;;10.35;9.52;;;13.30;50.70;;;;;;21227;6692;66979;-89
2022/01/01 10:56:01;;;;;;;11.87;10.77;;;13.30;50.70;;;;;;21036;6677;307855;-90
2022/01/01 10:58:27;;;;;;;11.10;10.30;;;13.50;50.40;;;;;;20968;6684;306515;-88
2022/01/01 11:00:52;;;;;;;9.57;8.87;;;13.80;49.50;;;;;;21217;6692;66975;-89
2022/01/01 11:03:18;;;;;;;10.07;9.38;;;13.80;50.10;;;;;;20988;6692;275008;-89
2022/01/01 11:05:43;;;;;;;9.00;8.27;;;13.90;49.90;;;;;;21232;6692;66796;-87
2022/01/01 11:08:09;;;;;;;10.10;9.40;;;13.90;50.00;;;;;;21013;6692;324822;-90
2022/01/01 11:10:34;;;;;;;10.38;9.57;;;13.90;49.00;;;;;;21018;6692;273603;-89
2022/01/01 11:13:00;;;;;;;9.52;8.82;;;14.10;48.70;;;;;;21014;6692;304397;-89
2022/01/01 11:15:25;;;;;;;7.70;7.20;;;14.30;48.40;;;;;;21224;6692;68397;-90
2022/01/01 11:17:51;;;;;;;8.98;8.38;;;14.30;49.00;;;;;;21026;6692;336277;-89
2022/01/01 11:20:17;;;;;;;9.00;8.20;;;14.30;48.10;;;;;;21232;6692;67525;-88
2022/01/01 11:22:43;;;;;;;6.80;6.30;;;14.00;50.40;;;;;;21231;6692;67557;-88
2022/01/01 11:25:08;;;;;;;8.38;7.87;;;14.00;49.70;;;;;;21023;6692;337528;-88
2022/01/01 11:27:34;;;;;;;7.27;6.67;;;14.10;48.10;;;;;;21292;6692;66985;-87
2022/01/01 11:30:01;;;;;;;6.87;6.37;;;14.10;48.80;;;;;;21304;6692;66588;-89
2022/01/01 11:32:36;;;;;;;6.73;6.23;;;14.00;49.60;;;;;;21285;6692;66915;-93
2022/01/01 11:35:02;;;;;;;6.63;6.13;;;13.90;50.10;;;;;;21165;6695;66604;-86
2022/01/01 11:37:28;;;;;;;7.47;7.00;;;13.80;50.70;;;;;;21053;6688;275311;-90
2022/01/01 11:39:53;;;;;;;7.37;6.87;;;14.00;49.40;;;;;;21009;6677;306777;-88
2022/01/01 11:42:18;;;;;;;7.83;7.23;;;14.40;47.90;;;;;;21226;6692;66971;-94
2022/01/01 11:44:53;;;;;;;7.70;7.20;;;14.40;48.60;;;;;;21049;6680;274272;-89
2022/01/01 11:47:19;;;;;;;7.53;7.03;;;14.60;47.80;;;;;;21004;6692;273884;-88
2022/01/01 11:49:46;;;;;;;7.62;6.93;;;14.80;47.60;;;;;;21248;6685;66974;-91
2022/01/01 11:52:13;;;;;;;7.40;6.90;;;14.90;46.90;;;;;;21036;6685;306706;-86
2022/01/01 11:54:40;;;;;;;6.97;6.43;;;14.80;46.90;;;;;;21192;6677;66654;-87
2022/01/01 11:57:06;;;;;;;6.97;6.47;;;14.80;47.90;;;;;;21055;6680;290090;-91
2022/01/01 11:59:38;;;;;;;6.30;5.87;;;14.80;47.20;;;;;;20992;6692;307237;-88
2022/01/01 12:02:20;;;;;;;6.50;6.00;;;15.00;46.10;;;;;;21052;6680;273511;-92
2022/01/01 12:04:51;;;;;;;5.03;4.63;;;15.30;45.40;;;;;;21281;6680;67954;-92
2022/01/01 12:07:18;;;;;;;4.70;4.40;;;14.80;47.30;;;;;;21147;6680;67311;-91
2022/01/01 12:10:06;;;;;;;5.03;4.23;;;14.80;47.20;;;;;;21275;6678;67405;-91
2022/01/01 12:12:48;;;;;;;4.57;4.30;;;14.60;48.00;;;;;;20933;6686;273486;-88
2022/01/01 12:15:27;;;;;;;4.03;3.83;;;14.70;46.40;;;;;;21009;6686;301926;-86
2022/01/01 12:18:00;;;;;;;4.97;4.57;;;15.00;45.50;;;;;;21239;6686;66519;-86
2022/01/01 12:20:31;;;;;;;4.47;4.17;;;14.90;46.50;;;;;;21000;6686;66536;-91
2022/01/01 12:22:57;;;;;;;4.20;3.90;;;14.70;47.30;;;;;;20912;6677;66898;-90
2022/01/01 12:25:22;;;;;;;4.60;4.33;;;14.50;47.80;;;;;;20999;6692;306910;-89
2022/01/01 12:27:51;;;;;;;4.77;4.47;;;14.90;45.80;;;;;;20991;6693;302865;-90
2022/01/01 12:30:15;;;;;;;4.23;3.93;;;14.90;45.80;;;;;;21182;6692;66834;-87
2022/01/01 12:32:47;;;;;;;4.97;4.67;;;14.90;46.40;;;;;;20991;6692;274422;-89